Time;durP1;ratioP1;P1;durP2;ratioP2;P2;SDS_P1;SDS_P2;PMS_P1;PMS_P2;Temp;Humidity;BMP_temperature;BMP_pressure;BME280_temperature;BME280_humidity;BME280_pressure;Samples;Min_cycle;Max_cycle;Signal;HPM_P1;HPM_P2
2021/11/12 00:14:24;;;;;;;87.27;36.87;;;3.20;98.90;;;;;;5088214;28;20494;-76
2021/11/12 00:16:51;;;;;;;81.95;35.72;;;3.30;99.00;;;;;;5089045;28;20425;-76
2021/11/12 00:19:18;;;;;;;84.73;33.50;;;3.40;99.00;;;;;;5087877;28;20195;-76
2021/11/12 00:21:45;;;;;;;67.80;30.40;;;3.40;98.80;;;;;;5093667;28;20528;-75
2021/11/12 00:24:11;;;;;;;106.55;41.53;;;3.40;98.60;;;;;;5088975;28;20863;-77
2021/11/12 00:26:37;;;;;;;82.77;34.20;;;3.40;98.20;;;;;;5091230;28;20255;-77
2021/11/12 00:29:04;;;;;;;72.85;33.15;;;3.30;97.90;;;;;;5090985;28;20511;-77
2021/11/12 00:37:37;;;;;;;83.72;32.92;;;3.50;97.90;;;;;;5091022;28;20298;-75
2021/11/12 00:42:06;;;;;;;74.33;32.10;;;3.60;97.60;;;;;;5091049;28;20256;-77
2021/11/12 00:47:22;;;;;;;82.00;36.10;;;3.70;97.50;;;;;;5092810;28;20638;-76
2021/11/12 00:55:18;;;;;;;81.35;35.03;;;3.60;97.10;;;;;;5090884;28;20772;-77
2021/11/12 00:57:44;;;;;;;78.13;33.00;;;3.70;97.10;;;;;;5090659;28;20206;-77
2021/11/12 01:00:12;;;;;;;88.43;34.63;;;3.70;97.20;;;;;;5090801;28;20457;-77
2021/11/12 01:02:39;;;;;;;68.27;30.10;;;3.70;97.20;;;;;;5091185;28;20461;-75
2021/11/12 01:05:07;;;;;;;71.40;31.83;;;3.70;97.10;;;;;;5090466;28;20424;-77
2021/11/12 01:07:33;;;;;;;59.03;28.63;;;3.70;97.00;;;;;;5091274;28;20463;-76
2021/11/12 01:09:59;;;;;;;53.57;26.63;;;3.70;96.70;;;;;;5091162;28;20456;-76
2021/11/12 01:12:26;;;;;;;57.10;28.33;;;3.60;96.50;;;;;;5089876;28;20463;-77
2021/11/12 01:14:54;;;;;;;56.23;26.30;;;3.60;96.30;;;;;;5089409;28;20759;-77
2021/11/12 01:17:19;;;;;;;60.65;29.20;;;3.50;95.90;;;;;;5088616;28;20448;-77
2021/11/12 01:19:45;;;;;;;56.30;26.30;;;3.40;95.90;;;;;;5090261;28;20199;-76
2021/11/12 01:22:11;;;;;;;56.10;26.33;;;3.40;95.90;;;;;;5089689;28;20207;-77
2021/11/12 01:24:38;;;;;;;66.00;29.90;;;3.40;95.90;;;;;;5089386;28;20470;-76
2021/11/12 01:27:05;;;;;;;53.35;25.98;;;3.30;95.80;;;;;;5089984;28;20195;-76
2021/11/12 01:29:32;;;;;;;63.50;28.20;;;3.30;95.70;;;;;;5089504;28;20846;-77
2021/11/12 01:32:13;;;;;;;70.70;31.40;;;3.30;95.70;;;;;;5090014;28;20428;-75
2021/11/12 01:34:39;;;;;;;74.65;31.13;;;3.30;95.80;;;;;;5088996;28;20183;-77
2021/11/12 01:37:04;;;;;;;67.50;30.90;;;3.20;96.00;;;;;;5093196;28;20272;-77
2021/11/12 01:39:31;;;;;;;75.77;32.60;;;3.10;96.30;;;;;;5092406;28;20248;-77
2021/11/12 01:42:00;;;;;;;82.30;34.83;;;3.00;96.60;;;;;;5098228;28;20425;-77
2021/11/12 01:45:04;;;;;;;81.72;32.88;;;2.90;96.90;;;;;;5085898;28;20785;-77
2021/11/12 01:50:08;;;;;;;73.43;34.53;;;2.90;97.70;;;;;;5089775;28;20561;-77
2021/11/12 01:52:38;;;;;;;97.13;35.30;;;2.90;97.90;;;;;;5089099;28;20615;-76
2021/11/12 01:55:17;;;;;;;85.60;34.53;;;3.00;98.10;;;;;;5087253;28;20432;-75
2021/11/12 02:00:38;;;;;;;78.80;31.73;;;3.10;98.30;;;;;;5031404;28;20207;-76
2021/11/12 02:03:04;;;;;;;72.90;30.80;;;3.10;98.30;;;;;;5085454;28;20297;-78
2021/11/12 02:05:30;;;;;;;82.53;35.00;;;3.20;98.30;;;;;;5088440;28;20190;-75
2021/11/12 02:07:56;;;;;;;74.87;30.60;;;3.20;98.20;;;;;;5089408;28;20610;-77
2021/11/12 02:10:26;;;;;;;83.97;33.57;;;3.20;98.00;;;;;;5089452;28;20199;-75
2021/11/12 02:15:24;;;;;;;68.93;31.33;;;3.20;97.90;;;;;;5087965;28;20563;-76
2021/11/12 02:17:59;;;;;;;95.65;37.92;;;3.20;97.80;;;;;;5089634;28;20195;-76
2021/11/12 02:20:40;;;;;;;86.32;35.08;;;3.10;97.60;;;;;;5087414;28;20202;-77
2021/11/12 02:23:06;;;;;;;85.87;37.33;;;3.10;97.50;;;;;;5088888;28;20206;-76
2021/11/12 02:25:43;;;;;;;73.40;33.53;;;3.10;97.50;;;;;;5088640;28;20838;-77
2021/11/12 02:28:14;;;;;;;81.90;38.00;;;3.00;97.40;;;;;;5089433;28;20179;-75
2021/11/12 02:30:43;;;;;;;90.80;38.70;;;2.90;97.40;;;;;;5089209;28;20490;-79
2021/11/12 02:33:15;;;;;;;104.28;40.88;;;2.70;97.40;;;;;;5084475;28;21618;-77
2021/11/12 02:36:06;;;;;;;93.15;38.67;;;2.70;97.70;;;;;;5083114;28;20187;-76
2021/11/12 02:38:35;;;;;;;87.13;35.80;;;2.80;97.90;;;;;;5079910;28;20661;-76
2021/11/12 02:41:03;;;;;;;86.53;36.10;;;2.80;98.00;;;;;;5088534;28;20498;-75
2021/11/12 02:43:28;;;;;;;75.23;33.63;;;2.80;98.10;;;;;;5086462;28;20473;-77
2021/11/12 02:45:57;;;;;;;88.17;34.63;;;2.90;98.20;;;;;;5090057;28;20437;-76
2021/11/12 02:48:23;;;;;;;74.60;33.87;;;3.00;98.30;;;;;;5093469;28;20303;-74
2021/11/12 02:50:49;;;;;;;76.00;32.57;;;3.10;98.20;;;;;;5092292;28;20409;-76
2021/11/12 02:53:16;;;;;;;70.87;31.73;;;3.10;98.10;;;;;;5090776;28;20210;-75
2021/11/12 02:55:44;;;;;;;82.97;33.67;;;3.10;98.00;;;;;;5089197;28;20185;-77
2021/11/12 02:58:10;;;;;;;92.97;38.80;;;3.00;97.80;;;;;;5089592;28;20552;-76
2021/11/12 03:00:39;;;;;;;82.72;36.13;;;2.90;97.60;;;;;;5089702;28;20198;-75
2021/11/12 03:03:06;;;;;;;82.35;35.20;;;2.90;97.70;;;;;;5087421;28;20207;-76
2021/11/12 03:05:32;;;;;;;96.82;40.03;;;2.90;97.80;;;;;;5088421;28;20277;-77
2021/11/12 03:08:00;;;;;;;84.70;35.92;;;2.90;97.90;;;;;;5089093;28;20179;-75
2021/11/12 03:10:26;;;;;;;76.95;32.65;;;2.90;98.00;;;;;;5089051;28;20309;-77
2021/11/12 03:12:52;;;;;;;85.90;35.05;;;3.00;98.10;;;;;;5088950;28;20258;-77
2021/11/12 03:15:19;;;;;;;82.15;35.90;;;3.00;98.10;;;;;;5088220;28;20179;-76
2021/11/12 03:17:48;;;;;;;76.68;33.38;;;3.00;98.00;;;;;;5087699;28;20552;-78
2021/11/12 03:20:15;;;;;;;83.25;34.78;;;2.90;98.10;;;;;;5089018;28;20179;-76
2021/11/12 03:22:55;;;;;;;83.43;37.88;;;2.90;98.20;;;;;;5088977;28;20203;-75
2021/11/12 03:25:50;;;;;;;84.88;36.05;;;2.80;98.10;;;;;;5087090;28;20182;-76
2021/11/12 04:21:51;;;;;;;74.70;31.97;;;2.90;97.30;;;;;;5049175;28;20423;-76
2021/11/12 05:43:53;;;;;;;78.00;31.83;;;3.00;98.00;;;;;;5049169;28;20223;-76
2021/11/12 05:52:01;;;;;;;67.03;29.33;;;2.80;97.50;;;;;;5059800;28;20272;-77
2021/11/12 05:57:13;;;;;;;69.20;31.07;;;2.80;97.40;;;;;;5070058;28;20605;-76
2021/11/12 05:59:39;;;;;;;73.07;33.08;;;2.60;97.30;;;;;;5091577;28;20563;-76
2021/11/12 06:02:05;;;;;;;71.77;30.10;;;2.50;97.20;;;;;;5090764;28;20262;-75
2021/11/12 06:04:32;;;;;;;70.75;32.13;;;2.40;97.10;;;;;;5090162;28;20175;-75
2021/11/12 06:06:58;;;;;;;78.55;32.47;;;2.30;97.10;;;;;;5091209;28;20211;-76
2021/11/12 06:09:24;;;;;;;73.00;31.63;;;2.30;97.20;;;;;;5089637;28;20182;-76
2021/11/12 06:11:53;;;;;;;67.90;32.23;;;2.30;97.40;;;;;;5091382;28;20237;-75
2021/11/12 06:14:19;;;;;;;79.03;33.20;;;2.20;97.50;;;;;;5090914;28;20428;-76
2021/11/12 06:16:45;;;;;;;76.03;30.50;;;2.20;97.50;;;;;;5091496;28;20202;-77
2021/11/12 06:19:11;;;;;;;73.20;31.90;;;2.10;97.50;;;;;;5091728;28;20633;-76
2021/11/12 06:21:37;;;;;;;89.43;36.80;;;2.00;97.60;;;;;;5091375;28;20687;-76
2021/11/12 06:24:04;;;;;;;71.25;31.10;;;2.00;97.70;;;;;;5090836;28;20464;-76
2021/11/12 06:26:30;;;;;;;78.55;33.85;;;1.90;97.90;;;;;;5092990;28;20286;-76
2021/11/12 06:28:58;;;;;;;80.77;36.20;;;1.90;98.00;;;;;;5091949;28;20215;-75
2021/11/12 06:31:24;;;;;;;74.30;32.20;;;1.90;98.20;;;;;;5089583;28;20966;-77
2021/11/12 06:33:51;;;;;;;71.60;32.47;;;1.90;98.40;;;;;;5087479;28;20195;-77
2021/11/12 06:36:18;;;;;;;84.70;35.83;;;1.90;98.60;;;;;;5087700;28;20216;-76
2021/11/12 06:38:45;;;;;;;73.97;31.20;;;2.00;98.60;;;;;;5089262;28;20208;-76
2021/11/12 06:41:14;;;;;;;71.07;31.20;;;2.00;98.70;;;;;;5088625;28;20199;-76
2021/11/12 06:44:20;;;;;;;101.20;36.17;;;2.00;98.60;;;;;;5088131;28;20230;-76
2021/11/12 06:49:59;;;;;;;75.72;31.33;;;2.00;98.60;;;;;;5044564;28;20184;-76
2021/11/12 06:52:28;;;;;;;67.40;30.30;;;2.00;98.50;;;;;;5076997;28;20198;-76
2021/11/12 06:54:55;;;;;;;68.05;32.05;;;2.00;98.50;;;;;;5089485;28;20219;-76
2021/11/12 06:57:21;;;;;;;74.05;31.85;;;1.90;98.40;;;;;;5089341;28;20272;-76
2021/11/12 06:59:49;;;;;;;82.68;34.28;;;1.90;98.20;;;;;;5089615;28;20183;-75
2021/11/12 07:02:17;;;;;;;79.25;33.90;;;1.90;98.20;;;;;;5089243;28;20190;-77
2021/11/12 07:04:43;;;;;;;77.18;35.03;;;1.80;98.40;;;;;;5089027;28;20190;-77
2021/11/12 07:07:09;;;;;;;65.07;30.33;;;1.90;98.50;;;;;;5091161;28;20199;-75
2021/11/12 07:09:36;;;;;;;74.50;32.63;;;1.90;98.50;;;;;;5091455;28;20187;-75
2021/11/12 07:12:02;;;;;;;82.38;34.95;;;1.90;98.50;;;;;;5087848;28;20436;-76
2021/11/12 07:14:28;;;;;;;75.70;33.07;;;2.00;98.60;;;;;;5088225;28;20191;-76
2021/11/12 07:16:53;;;;;;;76.33;33.30;;;2.00;98.60;;;;;;5092849;28;20451;-75
2021/11/12 07:19:19;;;;;;;72.70;31.77;;;2.10;98.60;;;;;;5094485;28;20425;-77
2021/11/12 07:21:45;;;;;;;65.57;31.10;;;2.10;98.50;;;;;;5095937;28;20463;-75
2021/11/12 07:24:11;;;;;;;68.37;30.00;;;2.10;98.40;;;;;;5092593;28;20461;-77
2021/11/12 07:26:38;;;;;;;69.57;30.60;;;2.10;98.30;;;;;;5096804;28;20519;-77
2021/11/12 07:29:04;;;;;;;66.00;31.40;;;2.20;98.30;;;;;;5093716;28;20408;-78
2021/11/12 07:31:31;;;;;;;69.53;31.17;;;2.20;98.20;;;;;;5093223;28;20171;-77
2021/11/12 07:33:59;;;;;;;73.20;30.30;;;2.30;98.10;;;;;;5087862;28;20183;-76
2021/11/12 07:36:35;;;;;;;75.03;31.65;;;2.50;98.30;;;;;;5092400;28;20226;-77
2021/11/12 07:39:06;;;;;;;76.43;34.10;;;2.50;98.10;;;;;;5094811;28;20837;-76
2021/11/12 07:47:00;;;;;;;67.57;29.27;;;2.70;97.50;;;;;;5093056;28;20259;-77
2021/11/12 07:49:26;;;;;;;74.03;32.88;;;2.50;97.20;;;;;;5092841;28;20173;-76
2021/11/12 07:51:52;;;;;;;76.63;32.75;;;2.40;97.10;;;;;;5091270;28;20203;-76
2021/11/12 07:54:19;;;;;;;76.10;30.90;;;2.30;97.10;;;;;;5091896;28;20197;-76
2021/11/12 07:56:45;;;;;;;79.68;34.53;;;2.30;97.20;;;;;;5092766;28;20219;-77
2021/11/12 07:59:11;;;;;;;69.05;30.92;;;2.20;97.40;;;;;;5092493;28;20646;-78
2021/11/12 08:01:36;;;;;;;79.53;33.90;;;2.30;97.50;;;;;;5091939;28;20267;-78
2021/11/12 08:04:05;;;;;;;75.03;31.90;;;2.20;97.60;;;;;;5091024;28;20281;-77
2021/11/12 08:06:32;;;;;;;82.65;33.13;;;2.20;97.70;;;;;;5092263;28;20203;-77
2021/11/12 08:09:05;;;;;;;72.95;32.17;;;2.20;97.80;;;;;;5092320;28;20175;-77
2021/11/12 08:11:55;;;;;;;69.10;32.47;;;2.30;97.80;;;;;;5092275;28;20179;-76
2021/11/12 08:20:18;;;;;;;75.80;32.45;;;2.10;97.80;;;;;;5085280;28;20676;-76
2021/11/12 08:25:06;;;;;;;73.10;28.90;;;2.20;98.00;;;;;;5092054;28;20947;-76
2021/11/12 08:42:44;;;;;;;56.42;26.27;;;2.90;97.10;;;;;;5092645;28;20257;-76
2021/11/12 08:47:39;;;;;;;65.13;28.90;;;3.20;96.60;;;;;;5093443;28;20210;-77
2021/11/12 08:50:08;;;;;;;54.10;24.87;;;3.30;96.30;;;;;;5093517;28;20248;-76
2021/11/12 08:52:33;;;;;;;52.80;25.02;;;3.50;96.10;;;;;;5094008;28;20436;-76
2021/11/12 08:55:05;;;;;;;56.07;25.97;;;3.50;95.60;;;;;;5095377;28;20187;-76
2021/11/12 08:57:31;;;;;;;63.50;28.27;;;3.60;95.20;;;;;;5086069;28;20302;-77
2021/11/12 08:59:57;;;;;;;53.00;26.30;;;3.80;94.70;;;;;;5091908;28;20459;-77
2021/11/12 09:02:26;;;;;;;55.63;26.80;;;3.80;94.20;;;;;;5091413;28;20445;-77
2021/11/12 09:04:52;;;;;;;55.10;28.70;;;3.70;93.90;;;;;;5090761;28;20208;-76
2021/11/12 09:07:18;;;;;;;51.57;25.80;;;3.70;93.80;;;;;;5090796;28;20460;-77
2021/11/12 09:09:45;;;;;;;57.63;25.60;;;3.70;93.80;;;;;;5089915;28;20536;-77
2021/11/12 09:12:14;;;;;;;51.57;24.37;;;3.80;94.10;;;;;;5092142;28;20483;-79
2021/11/12 09:14:48;;;;;;;57.93;27.77;;;4.00;94.10;;;;;;5090429;28;20863;-76
2021/11/12 09:17:20;;;;;;;52.03;28.20;;;4.20;93.70;;;;;;5085250;28;20445;-77
2021/11/12 09:19:49;;;;;;;67.80;30.60;;;4.40;93.30;;;;;;5091334;28;20413;-76
2021/11/12 09:22:17;;;;;;;55.90;26.50;;;4.40;92.80;;;;;;5090965;28;20520;-76
2021/11/12 09:24:43;;;;;;;55.60;27.13;;;4.50;92.60;;;;;;5089849;28;20457;-76
2021/11/12 09:27:10;;;;;;;55.17;27.03;;;4.40;92.30;;;;;;5090401;28;20437;-77
2021/11/12 09:29:37;;;;;;;54.03;27.30;;;4.40;92.60;;;;;;5090624;28;20426;-77
2021/11/12 09:32:04;;;;;;;57.23;27.67;;;4.40;92.60;;;;;;5090153;28;20418;-76
2021/11/12 09:34:34;;;;;;;60.73;28.83;;;4.30;92.40;;;;;;5089937;28;20429;-76
2021/11/12 09:37:01;;;;;;;58.93;26.20;;;4.30;92.60;;;;;;5086386;28;20498;-76
2021/11/12 09:39:27;;;;;;;57.63;27.60;;;4.30;92.60;;;;;;5089381;28;20417;-78
2021/11/12 09:41:53;;;;;;;58.97;28.07;;;4.30;92.50;;;;;;5090106;28;20787;-76
2021/11/12 09:44:19;;;;;;;55.67;27.80;;;4.30;92.50;;;;;;5090652;28;20465;-77
2021/11/12 09:46:45;;;;;;;58.37;27.20;;;4.20;92.60;;;;;;5091102;28;20207;-77
2021/11/12 09:49:11;;;;;;;59.33;27.87;;;4.20;92.80;;;;;;5090369;28;20936;-78
2021/11/12 09:51:36;;;;;;;56.80;27.17;;;4.30;92.90;;;;;;5086075;28;20229;-78
2021/11/12 09:54:03;;;;;;;56.03;26.40;;;4.30;92.60;;;;;;5090613;28;20187;-77
2021/11/12 09:56:29;;;;;;;58.93;28.20;;;4.40;92.60;;;;;;5090222;28;20260;-77
2021/11/12 09:58:55;;;;;;;57.23;26.67;;;4.50;92.50;;;;;;5090823;28;20432;-76
2021/11/12 10:01:27;;;;;;;66.10;29.40;;;4.60;92.50;;;;;;5090561;28;20417;-76
2021/11/12 10:03:53;;;;;;;61.80;29.13;;;4.60;92.30;;;;;;5090015;28;20203;-76
2021/11/12 10:06:23;;;;;;;66.40;29.07;;;4.60;92.10;;;;;;5090098;28;20444;-78
2021/11/12 10:08:51;;;;;;;55.73;27.10;;;4.60;91.90;;;;;;5088674;28;20420;-76
2021/11/12 10:11:29;;;;;;;55.20;27.30;;;4.60;92.10;;;;;;5090257;28;20577;-77
2021/11/12 10:14:00;;;;;;;55.60;28.70;;;4.60;92.20;;;;;;5090275;28;20842;-77
2021/11/12 10:16:42;;;;;;;54.97;27.00;;;4.60;92.30;;;;;;5090887;28;21048;-78
2021/11/12 10:19:09;;;;;;;61.93;31.20;;;4.40;92.30;;;;;;5079032;28;20432;-75
2021/11/12 10:21:37;;;;;;;60.20;27.83;;;4.50;92.70;;;;;;5087817;28;20425;-76
2021/11/12 10:24:15;;;;;;;59.90;29.27;;;4.70;92.70;;;;;;5089293;28;20491;-77
2021/11/12 10:26:44;;;;;;;58.23;29.70;;;4.60;92.10;;;;;;5086590;28;20443;-77
2021/11/12 10:29:19;;;;;;;64.23;29.40;;;4.30;92.70;;;;;;5089991;28;20508;-76
2021/11/12 10:31:51;;;;;;;64.53;30.40;;;4.30;93.20;;;;;;5089853;28;20413;-76
2021/11/12 10:34:26;;;;;;;61.90;28.13;;;4.40;93.40;;;;;;5089218;28;20432;-78
2021/11/12 10:36:58;;;;;;;64.27;30.00;;;4.50;93.30;;;;;;5089736;28;20479;-78
2021/11/12 10:39:30;;;;;;;66.50;28.70;;;4.60;92.90;;;;;;5091495;28;20939;-75
2021/11/12 10:41:58;;;;;;;60.33;29.00;;;4.50;93.00;;;;;;5100016;28;20437;-76
2021/11/12 10:44:24;;;;;;;59.37;27.67;;;4.60;93.40;;;;;;5097914;28;20465;-76
2021/11/12 10:46:50;;;;;;;68.63;30.50;;;4.70;93.10;;;;;;5099468;28;20449;-76
2021/11/12 10:49:38;;;;;;;63.90;30.83;;;4.80;92.80;;;;;;5094756;28;20524;-76
2021/11/12 10:52:13;;;;;;;59.43;28.90;;;4.90;92.20;;;;;;5091882;28;20172;-78
2021/11/12 10:54:48;;;;;;;65.87;29.43;;;5.10;92.30;;;;;;5089240;28;20421;-78
2021/11/12 10:57:14;;;;;;;63.13;28.00;;;5.30;92.10;;;;;;5091103;28;20433;-77
2021/11/12 11:00:07;;;;;;;56.40;28.10;;;5.40;91.10;;;;;;5090064;28;20762;-76
2021/11/12 11:02:46;;;;;;;58.03;28.50;;;5.60;90.70;;;;;;5089893;28;21009;-77
2021/11/12 11:05:15;;;;;;;59.83;28.30;;;5.70;90.00;;;;;;5092088;28;20448;-78
2021/11/12 11:07:44;;;;;;;57.83;28.33;;;5.70;89.50;;;;;;5093112;28;20441;-77
2021/11/12 11:10:27;;;;;;;59.40;27.47;;;5.60;89.00;;;;;;5089507;28;20421;-77
2021/11/12 11:12:54;;;;;;;62.20;28.77;;;5.70;89.60;;;;;;5090541;28;20963;-77
2021/11/12 11:15:27;;;;;;;53.63;27.47;;;5.70;89.50;;;;;;5089675;28;20479;-76
2021/11/12 11:18:24;;;;;;;57.93;29.23;;;5.80;89.60;;;;;;5089946;28;20548;-76
2021/11/12 11:20:53;;;;;;;52.73;27.50;;;5.80;89.00;;;;;;5084723;28;20420;-77
2021/11/12 11:23:21;;;;;;;59.33;28.80;;;5.40;89.50;;;;;;5089880;28;20460;-78
2021/11/12 11:25:56;;;;;;;65.37;31.67;;;5.30;90.40;;;;;;5088867;28;20429;-77
2021/11/12 11:28:22;;;;;;;51.03;28.00;;;5.40;90.80;;;;;;5089410;28;20428;-77
2021/11/12 11:30:48;;;;;;;57.77;26.97;;;5.50;90.60;;;;;;5089343;28;20433;-76
2021/11/12 11:33:16;;;;;;;55.60;29.13;;;5.60;90.50;;;;;;5089581;28;20452;-77
2021/11/12 11:35:44;;;;;;;66.13;30.17;;;5.70;90.10;;;;;;5088635;28;20187;-77
2021/11/12 11:38:13;;;;;;;59.87;30.90;;;5.80;89.70;;;;;;5089353;28;20789;-77
2021/11/12 11:40:40;;;;;;;61.67;29.80;;;5.60;89.20;;;;;;5090682;28;20444;-78
2021/11/12 11:43:09;;;;;;;60.83;29.30;;;5.80;90.00;;;;;;5089366;28;20472;-76
2021/11/12 11:45:36;;;;;;;68.03;29.13;;;5.80;89.70;;;;;;5087718;28;20421;-78
2021/11/12 11:48:02;;;;;;;57.27;28.73;;;5.60;89.50;;;;;;5084911;28;20429;-76
2021/11/12 11:50:31;;;;;;;66.20;30.47;;;5.60;90.60;;;;;;5082402;28;20424;-78
2021/11/12 11:53:30;;;;;;;65.83;30.63;;;5.60;90.80;;;;;;5084771;28;20413;-77
2021/11/12 11:56:13;;;;;;;61.67;29.57;;;5.50;91.00;;;;;;5090250;28;20460;-78
2021/11/12 11:58:44;;;;;;;61.67;31.43;;;5.50;91.30;;;;;;5091793;28;20433;-77
2021/11/12 12:01:16;;;;;;;65.57;31.67;;;5.60;91.50;;;;;;5089777;28;20459;-77
2021/11/12 12:03:43;;;;;;;55.70;28.43;;;5.60;91.40;;;;;;5088057;28;20472;-78
2021/11/12 12:06:20;;;;;;;58.43;30.97;;;5.70;91.30;;;;;;5088174;28;20444;-76
2021/11/12 12:09:15;;;;;;;62.00;31.03;;;5.80;91.20;;;;;;5091534;28;20429;-76
2021/11/12 12:11:50;;;;;;;65.67;30.90;;;5.90;90.60;;;;;;5098333;28;20432;-76
2021/11/12 12:14:20;;;;;;;63.27;30.70;;;6.00;90.50;;;;;;5097825;28;20508;-77
2021/11/12 12:17:11;;;;;;;66.97;32.40;;;6.20;90.20;;;;;;5094203;28;20958;-79
2021/11/12 12:19:47;;;;;;;65.57;31.27;;;6.40;90.00;;;;;;5085244;28;20549;-76
2021/11/12 13:25:07;;;;;;;74.63;34.17;;;6.90;89.00;;;;;;5089524;28;20428;-77
2021/11/12 13:27:33;;;;;;;68.43;33.63;;;6.90;88.30;;;;;;5090295;28;20493;-77
2021/11/12 13:29:58;;;;;;;73.00;34.30;;;7.00;88.10;;;;;;5090276;28;21166;-76
2021/11/12 13:32:24;;;;;;;74.83;34.10;;;7.00;88.00;;;;;;5088928;28;20436;-76
2021/11/12 13:34:50;;;;;;;75.80;35.70;;;6.90;88.60;;;;;;5089915;28;20187;-77
2021/11/12 13:37:24;;;;;;;70.50;34.60;;;6.90;88.60;;;;;;5090224;28;20199;-76
2021/11/12 13:40:11;;;;;;;73.87;37.03;;;6.70;89.00;;;;;;5088752;28;20209;-78
2021/11/12 13:42:42;;;;;;;75.57;34.73;;;6.60;90.10;;;;;;5090045;28;20852;-78
2021/11/12 13:45:34;;;;;;;77.03;33.63;;;6.50;90.10;;;;;;5088216;28;20422;-75
2021/11/12 13:48:11;;;;;;;75.63;33.80;;;6.50;90.70;;;;;;5087069;28;20433;-75
2021/11/12 13:50:42;;;;;;;91.07;37.17;;;6.50;90.70;;;;;;5083585;28;20471;-77
2021/11/12 13:53:08;;;;;;;77.37;35.33;;;6.40;90.80;;;;;;5088144;28;20436;-77
2021/11/12 13:55:38;;;;;;;81.00;39.33;;;6.30;91.10;;;;;;5088698;28;20451;-77
2021/11/12 13:58:05;;;;;;;70.20;32.70;;;6.30;91.40;;;;;;5089524;28;20428;-77
2021/11/12 14:00:34;;;;;;;76.53;36.77;;;6.40;91.30;;;;;;5089315;28;20425;-75
2021/11/12 14:03:07;;;;;;;89.10;36.43;;;6.30;91.30;;;;;;5089695;28;21086;-75
2021/11/12 14:05:38;;;;;;;85.37;35.43;;;6.30;91.40;;;;;;5085245;28;20441;-76
2021/11/12 14:08:12;;;;;;;80.73;36.60;;;6.30;91.30;;;;;;5089423;28;20417;-77
2021/11/12 14:10:44;;;;;;;75.40;33.97;;;6.30;91.50;;;;;;5089149;28;20421;-77
2021/11/12 14:13:12;;;;;;;70.33;33.07;;;6.20;91.60;;;;;;5089705;28;20449;-76
2021/11/12 14:15:55;;;;;;;70.80;34.57;;;6.20;91.80;;;;;;5088296;28;20453;-76
2021/11/12 14:27:14;;;;;;;76.67;34.43;;;6.20;92.20;;;;;;5064150;28;20466;-76
2021/11/12 14:29:55;;;;;;;69.13;31.70;;;6.00;92.60;;;;;;5089564;28;20532;-77
2021/11/12 14:49:00;;;;;;;86.63;35.63;;;5.50;95.40;;;;;;5089320;28;20436;-77
2021/11/12 14:54:28;;;;;;;83.63;34.20;;;4.90;96.40;;;;;;5088127;28;20436;-76
2021/11/12 14:56:55;;;;;;;82.73;33.30;;;4.70;96.90;;;;;;5087354;28;20885;-76
2021/11/12 14:59:21;;;;;;;87.33;32.63;;;4.70;97.30;;;;;;5086946;28;20437;-76
2021/11/12 15:01:47;;;;;;;90.03;37.27;;;4.70;97.50;;;;;;5088526;28;20432;-77
2021/11/12 15:04:13;;;;;;;79.23;32.67;;;4.70;97.50;;;;;;5088643;28;20238;-77
2021/11/12 15:06:39;;;;;;;71.67;31.20;;;4.70;97.50;;;;;;5087677;28;20452;-77
2021/11/12 15:11:33;;;;;;;83.17;30.43;;;4.50;97.10;;;;;;5088821;28;20832;-76
2021/11/12 15:16:32;;;;;;;72.97;29.63;;;4.20;97.60;;;;;;5089679;28;20460;-77
2021/11/12 15:18:59;;;;;;;79.17;31.10;;;4.20;97.80;;;;;;5088632;28;21072;-76
2021/11/12 15:29:28;;;;;;;72.50;29.93;;;4.00;98.20;;;;;;5065202;28;20430;-76
2021/11/12 15:34:20;;;;;;;69.37;29.10;;;3.80;98.30;;;;;;5065862;28;20450;-76
2021/11/12 15:36:55;;;;;;;75.23;30.90;;;3.70;98.50;;;;;;5064078;28;20241;-76
2021/11/12 15:39:31;;;;;;;76.70;31.07;;;3.70;98.70;;;;;;5068983;28;20190;-77
2021/11/12 15:42:17;;;;;;;77.10;29.63;;;3.60;99.10;;;;;;5065057;28;20418;-75
2021/11/12 15:44:44;;;;;;;82.37;31.90;;;3.60;99.50;;;;;;5064502;28;20473;-76
2021/11/12 15:49:43;;;;;;;75.18;33.10;;;3.70;99.70;;;;;;5068144;28;20405;-76
2021/11/12 15:52:12;;;;;;;79.00;32.30;;;3.70;99.70;;;;;;5072043;28;20531;-77
2021/11/12 15:54:59;;;;;;;84.93;32.83;;;3.70;99.80;;;;;;5068249;28;20549;-78
2021/11/12 16:05:13;;;;;;;79.70;32.20;;;3.70;99.70;;;;;;5091629;28;20443;-77
2021/11/12 16:12:51;;;;;;;84.90;32.47;;;3.90;99.50;;;;;;5092505;28;20447;-76
2021/11/12 16:25:46;;;;;;;67.77;28.97;;;3.90;98.90;;;;;;5092174;28;20190;-76
2021/11/12 16:28:19;;;;;;;82.20;34.27;;;3.90;98.90;;;;;;5093838;28;20421;-76
2021/11/12 16:30:54;;;;;;;71.67;28.67;;;3.90;98.90;;;;;;5095328;28;20421;-76
2021/11/12 16:33:21;;;;;;;74.00;30.50;;;4.00;98.90;;;;;;5095294;28;20937;-76
2021/11/12 16:35:46;;;;;;;80.53;29.80;;;4.00;98.80;;;;;;5089565;28;20444;-76
2021/11/12 16:38:25;;;;;;;62.30;29.23;;;4.00;98.80;;;;;;5092401;28;20800;-76
2021/11/12 16:40:58;;;;;;;79.70;32.67;;;3.90;98.80;;;;;;5094145;28;20207;-76
2021/11/12 16:54:32;;;;;;;65.47;25.83;;;4.20;98.70;;;;;;5104456;28;20706;-75
2021/11/12 17:47:50;;;;;;;43.83;21.07;;;4.10;97.30;;;;;;5090503;28;20445;-76
2021/11/12 17:50:36;;;;;;;49.17;23.30;;;4.20;97.30;;;;;;5090294;28;20605;-76
2021/11/12 18:06:37;;;;;;;51.23;23.10;;;4.10;96.90;;;;;;5089223;28;20307;-78
2021/11/12 18:09:36;;;;;;;65.17;28.60;;;4.20;97.10;;;;;;5089827;28;20425;-77
2021/11/12 21:46:52;;;;;;;51.92;22.13;;;2.60;98.00;;;;;;5089476;28;20206;-76
2021/11/12 21:49:18;;;;;;;49.88;24.13;;;2.70;98.00;;;;;;5089964;28;20259;-77
2021/11/12 21:51:44;;;;;;;45.30;21.50;;;2.70;97.90;;;;;;5090665;28;20608;-76
2021/11/12 21:54:12;;;;;;;56.90;23.85;;;2.70;97.90;;;;;;5089323;28;20191;-78
2021/11/12 21:56:38;;;;;;;45.73;21.83;;;2.70;97.80;;;;;;5089535;28;20677;-76
2021/11/12 21:59:04;;;;;;;46.42;24.35;;;2.70;97.70;;;;;;5088177;28;20548;-76
2021/11/12 22:01:31;;;;;;;48.50;25.70;;;2.70;97.70;;;;;;5089821;28;20347;-77
2021/11/12 22:03:57;;;;;;;51.50;26.33;;;2.70;97.60;;;;;;5089610;28;20218;-76
2021/11/12 22:06:23;;;;;;;50.07;23.97;;;2.70;97.60;;;;;;5089943;28;20688;-77
2021/11/12 22:08:49;;;;;;;52.33;27.67;;;2.70;97.70;;;;;;5089717;28;21177;-77
2021/11/12 22:11:15;;;;;;;52.30;25.73;;;2.60;97.70;;;;;;5089962;28;20248;-79
2021/11/12 22:13:42;;;;;;;45.50;23.40;;;2.60;97.80;;;;;;5089043;28;20519;-76
2021/11/12 22:16:10;;;;;;;57.47;23.98;;;2.60;97.90;;;;;;5089165;28;20260;-76
2021/11/12 22:18:37;;;;;;;41.92;21.75;;;2.70;98.00;;;;;;5089468;28;20191;-77
2021/11/12 22:21:03;;;;;;;49.10;23.05;;;2.70;97.90;;;;;;5101775;28;20210;-76
2021/11/12 22:23:29;;;;;;;53.03;24.58;;;2.70;97.70;;;;;;5102669;28;20198;-77
2021/11/12 22:25:55;;;;;;;47.65;23.70;;;2.70;97.50;;;;;;5099501;28;20194;-76
2021/11/12 22:28:21;;;;;;;53.60;23.93;;;2.70;97.50;;;;;;5095040;28;20183;-77
2021/11/12 22:30:48;;;;;;;40.60;22.05;;;2.70;97.50;;;;;;5091532;28;20504;-76
2021/11/12 22:33:14;;;;;;;49.38;25.00;;;2.70;97.70;;;;;;5092510;28;20198;-78
2021/11/12 22:35:41;;;;;;;46.67;21.80;;;2.70;97.70;;;;;;5089105;28;20194;-78
2021/11/12 22:38:09;;;;;;;45.22;24.15;;;2.70;97.80;;;;;;5090543;28;20187;-77
2021/11/12 22:40:36;;;;;;;47.55;22.45;;;2.70;97.70;;;;;;5089268;28;20398;-75
2021/11/12 22:43:02;;;;;;;46.22;22.98;;;2.70;97.50;;;;;;5087508;28;20217;-76
2021/11/12 22:45:27;;;;;;;48.27;24.07;;;2.60;97.40;;;;;;5088513;28;20179;-77
2021/11/12 22:47:53;;;;;;;45.13;23.53;;;2.60;97.40;;;;;;5093697;28;20806;-77
2021/11/12 22:50:19;;;;;;;46.77;23.30;;;2.60;97.40;;;;;;5089857;28;20421;-77
2021/11/12 22:52:45;;;;;;;43.37;22.03;;;2.60;97.50;;;;;;5088866;28;21007;-76
2021/11/12 22:55:11;;;;;;;46.43;23.53;;;2.70;97.40;;;;;;5087705;28;20179;-76
2021/11/12 22:57:37;;;;;;;49.87;25.17;;;2.70;97.30;;;;;;5086018;28;20223;-77
2021/11/12 23:00:20;;;;;;;45.00;22.40;;;2.60;97.20;;;;;;5088363;28;20574;-76
2021/11/12 23:02:46;;;;;;;45.40;24.02;;;2.60;97.30;;;;;;5080486;28;20496;-78
2021/11/12 23:05:12;;;;;;;45.40;23.80;;;2.60;97.20;;;;;;5083840;28;20175;-75
2021/11/12 23:07:39;;;;;;;48.90;23.70;;;2.60;97.30;;;;;;5088609;28;20298;-77
2021/11/12 23:10:05;;;;;;;45.13;23.20;;;2.70;97.40;;;;;;5082631;28;20232;-75
2021/11/12 23:12:32;;;;;;;43.55;22.88;;;2.60;97.30;;;;;;5088513;28;20191;-76
2021/11/12 23:14:57;;;;;;;45.42;24.05;;;2.60;97.30;;;;;;5085972;28;20195;-76
2021/11/12 23:17:23;;;;;;;47.07;22.57;;;2.60;97.30;;;;;;5087782;28;20681;-76
2021/11/12 23:19:49;;;;;;;50.03;25.03;;;2.60;97.30;;;;;;5088346;28;20187;-75
2021/11/12 23:22:15;;;;;;;38.37;21.90;;;2.60;97.30;;;;;;5086590;28;20490;-76
2021/11/12 23:24:41;;;;;;;47.50;24.60;;;2.60;97.20;;;;;;5088474;28;20215;-75